createdAt,value
2022-11-17T00:05:08.483Z,99934.86
2022-11-17T00:20:30.906Z,99916.92
2022-11-17T00:35:34.580Z,99918.83
2022-11-17T00:50:37.696Z,99913.52
2022-11-17T01:05:40.817Z,99916.67
2022-11-17T01:20:44.255Z,99920.46
2022-11-17T01:35:47.631Z,99907.55
2022-11-17T01:50:51.048Z,99901.92
2022-11-17T02:06:09.950Z,99896.13
2022-11-17T02:21:35.229Z,99888.39
2022-11-17T02:36:50.897Z,99883.26
2022-11-17T02:51:58.161Z,99869.63
2022-11-17T03:07:01.331Z,99875.55
2022-11-17T03:22:28.474Z,99874.28
2022-11-17T03:37:35.945Z,99873.02
2022-11-17T03:52:39.308Z,99876.83
2022-11-17T04:07:45.184Z,99865.73
2022-11-17T04:23:07.235Z,99864.16
2022-11-17T04:38:12.627Z,99872.30
2022-11-17T04:53:15.887Z,99869.81
2022-11-17T05:08:19.036Z,99865.50
2022-11-17T05:23:41.093Z,99875.84
2022-11-17T05:38:44.453Z,99865.90
2022-11-17T05:53:49.402Z,99860.58
2022-11-17T06:08:52.667Z,99861.13
2022-11-17T06:23:56.249Z,99877.46
2022-11-17T06:38:59.607Z,99887.98
2022-11-17T06:54:04.682Z,99888.21
2022-11-17T07:09:11.571Z,99884.73
2022-11-17T07:24:15.321Z,99887.75
2022-11-17T07:39:21.522Z,99891.23
2022-11-17T07:54:25.674Z,99891.33
2022-11-17T08:09:29.510Z,99887.52
2022-11-17T08:24:33.026Z,99889.73
2022-11-17T08:39:36.385Z,99889.05
2022-11-17T08:54:40.101Z,99888.22
2022-11-17T09:09:44.348Z,99882.94
2022-11-17T09:24:47.807Z,99888.16
2022-11-17T09:39:51.525Z,99879.34
2022-11-17T09:55:21.876Z,99877.25
2022-11-17T10:10:35.286Z,99855.16
2022-11-17T10:25:41.797Z,99839.64
2022-11-17T10:40:45.740Z,99825.56
2022-11-17T10:56:05.355Z,99816.10
2022-11-17T11:11:19.618Z,99823.96
2022-11-17T11:26:47.335Z,99816.85
2022-11-17T11:42:22.610Z,99798.15
2022-11-17T11:57:35.850Z,99783.14
2022-11-17T12:12:40.994Z,99770.26
2022-11-17T12:27:46.113Z,99756.02
2022-11-17T12:43:28.086Z,99756.64
2022-11-17T12:59:05.161Z,99740.26
2022-11-17T13:14:14.420Z,99734.48
2022-11-17T13:29:23.044Z,99727.39
2022-11-17T13:44:28.688Z,99713.73
2022-11-17T13:59:35.279Z,99708.59
2022-11-17T14:14:38.895Z,99707.05
2022-11-17T14:29:42.768Z,99704.02
2022-11-17T14:44:46.805Z,99707.82
2022-11-17T14:59:50.110Z,99705.78
2022-11-17T15:14:53.969Z,99699.17
2022-11-17T15:29:57.757Z,99701.40
2022-11-17T15:45:01.327Z,99712.91
2022-11-17T16:00:07.066Z,99706.55
2022-11-17T16:15:11.132Z,99700.66
2022-11-17T16:30:16.061Z,99691.27
2022-11-17T16:45:20.185Z,99692.86
2022-11-17T17:00:23.478Z,99695.33
2022-11-17T17:15:26.922Z,99688.75
2022-11-17T17:30:30.897Z,99682.16
2022-11-17T17:45:38.124Z,99672.35
2022-11-17T18:00:41.647Z,99670.04
2022-11-17T18:15:45.445Z,99671.51
2022-11-17T18:30:49.569Z,99654.23
2022-11-17T18:45:53.223Z,99645.59
2022-11-17T19:00:58.069Z,99639.89
2022-11-17T19:16:22.809Z,99628.80
2022-11-17T19:31:26.677Z,99621.87
2022-11-17T19:46:31.931Z,99620.45
2022-11-17T20:01:36.095Z,99626.67
2022-11-17T20:16:39.683Z,99626.02
2022-11-17T20:31:43.102Z,99623.02
2022-11-17T20:46:46.658Z,99611.39
2022-11-17T21:01:50.821Z,99599.66
2022-11-17T21:16:57.847Z,99589.09
2022-11-17T21:32:01.220Z,99587.84
2022-11-17T21:47:04.468Z,99577.17
2022-11-17T22:02:10.245Z,99579.38
2022-11-17T22:17:14.027Z,99577.62
2022-11-17T22:32:17.461Z,99578.52
2022-11-17T22:47:20.696Z,99580.13
2022-11-17T23:02:24.240Z,99575.45
2022-11-17T23:17:27.838Z,99557.59
2022-11-17T23:32:31.151Z,99558.50
2022-11-17T23:47:34.982Z,99553.25
